Terminal Aerodrome Forecast
Issued by NWS

Home | Current Version | Previous Version | Text Only | Print | Product List | Glossary On
Versions: 1 2 3 4 5 6 7 8 9 10 11 12 13 14 15 16 17 18 19 20 21 22 23 24 25 26 27 28 29
000
FTUS44 KBMX 031738
TAFEET
TAF
KEET 031738Z 0318/0418 26010KT P6SM BKN040
      TEMPO 0318/0321 3SM SHRA BR BKN025 OVC050
     FM040000 19004KT P6SM BKN050
     FM040500 21007KT 3SM +TSRA BKN015CB OVC030
     FM041000 22011KT P6SM OVC040=

USA.gov is the U.S. government's official web portal to all federal, state and local government web resources and services.